sensor_id;sensor_type;location;lat;lon;timestamp;pressure;altitude;pressure_sealevel;temperature;humidity
62164;BME280;48149;51.132;7.178;2023-02-19T00:01:27;98853.38;;;26.09;44.21
62164;BME280;48149;51.132;7.178;2023-02-19T00:03:54;98852.34;;;24.39;50.28
62164;BME280;48149;51.132;7.178;2023-02-19T00:06:20;98864.25;;;24.47;45.33
62164;BME280;48149;51.132;7.178;2023-02-19T00:08:45;98856.66;;;25.53;42.96
62164;BME280;48149;51.132;7.178;2023-02-19T00:11:11;98858.78;;;24.11;51.15
62164;BME280;48149;51.132;7.178;2023-02-19T00:13:38;98851.09;;;23.59;48.17
62164;BME280;48149;51.132;7.178;2023-02-19T00:16:07;98849.50;;;24.63;48.93
62164;BME280;48149;51.132;7.178;2023-02-19T00:18:32;98852.28;;;24.45;49.67
62164;BME280;48149;51.132;7.178;2023-02-19T00:20:58;98845.38;;;22.72;54.08
62164;BME280;48149;51.132;7.178;2023-02-19T00:23:23;98836.50;;;23.32;53.87
62164;BME280;48149;51.132;7.178;2023-02-19T00:25:48;98851.00;;;22.70;57.23
62164;BME280;48149;51.132;7.178;2023-02-19T00:28:14;98846.22;;;24.53;50.77
62164;BME280;48149;51.132;7.178;2023-02-19T00:30:39;98839.84;;;24.76;49.26
62164;BME280;48149;51.132;7.178;2023-02-19T00:33:04;98843.13;;;24.73;48.84
62164;BME280;48149;51.132;7.178;2023-02-19T00:35:32;98841.84;;;24.70;48.44
62164;BME280;48149;51.132;7.178;2023-02-19T00:37:57;98847.97;;;25.34;45.25
62164;BME280;48149;51.132;7.178;2023-02-19T00:40:22;98838.38;;;25.77;45.96
62164;BME280;48149;51.132;7.178;2023-02-19T00:42:49;98832.09;;;24.06;48.01
62164;BME280;48149;51.132;7.178;2023-02-19T00:45:15;98828.88;;;26.89;42.06
62164;BME280;48149;51.132;7.178;2023-02-19T00:47:40;98838.78;;;25.48;45.48
62164;BME280;48149;51.132;7.178;2023-02-19T00:50:05;98826.44;;;25.03;44.29
62164;BME280;48149;51.132;7.178;2023-02-19T00:52:30;98831.88;;;24.49;48.51
62164;BME280;48149;51.132;7.178;2023-02-19T00:54:56;98826.06;;;24.96;48.14
62164;BME280;48149;51.132;7.178;2023-02-19T00:57:21;98821.31;;;25.51;44.14
62164;BME280;48149;51.132;7.178;2023-02-19T00:59:46;98825.94;;;23.92;52.35
62164;BME280;48149;51.132;7.178;2023-02-19T01:02:11;98829.94;;;24.49;52.83
62164;BME280;48149;51.132;7.178;2023-02-19T01:04:36;98827.41;;;26.18;46.24
62164;BME280;48149;51.132;7.178;2023-02-19T01:07:02;98834.22;;;23.77;47.33
62164;BME280;48149;51.132;7.178;2023-02-19T01:09:27;98823.84;;;24.49;51.08
62164;BME280;48149;51.132;7.178;2023-02-19T01:11:52;98822.44;;;24.51;48.98
62164;BME280;48149;51.132;7.178;2023-02-19T01:14:17;98829.22;;;25.56;44.71
62164;BME280;48149;51.132;7.178;2023-02-19T01:16:42;98833.06;;;25.06;46.81
62164;BME280;48149;51.132;7.178;2023-02-19T01:19:08;98818.56;;;24.71;46.82
62164;BME280;48149;51.132;7.178;2023-02-19T01:21:33;98822.03;;;24.44;47.10
62164;BME280;48149;51.132;7.178;2023-02-19T01:23:58;98826.59;;;26.18;43.73
62164;BME280;48149;51.132;7.178;2023-02-19T01:26:25;98817.34;;;25.26;46.92
62164;BME280;48149;51.132;7.178;2023-02-19T01:28:51;98821.72;;;25.44;46.25
62164;BME280;48149;51.132;7.178;2023-02-19T01:31:20;98817.84;;;24.65;46.50
62164;BME280;48149;51.132;7.178;2023-02-19T01:33:46;98814.28;;;25.86;43.63
62164;BME280;48149;51.132;7.178;2023-02-19T01:36:12;98805.22;;;24.93;46.61
62164;BME280;48149;51.132;7.178;2023-02-19T01:38:37;98820.56;;;24.38;46.49
62164;BME280;48149;51.132;7.178;2023-02-19T01:41:04;98811.69;;;26.51;44.06
62164;BME280;48149;51.132;7.178;2023-02-19T01:43:33;98815.31;;;25.32;46.18
62164;BME280;48149;51.132;7.178;2023-02-19T01:45:58;98806.13;;;26.30;44.27
62164;BME280;48149;51.132;7.178;2023-02-19T01:48:34;98797.75;;;25.62;42.93
62164;BME280;48149;51.132;7.178;2023-02-19T01:51:08;98803.66;;;24.78;44.97
62164;BME280;48149;51.132;7.178;2023-02-19T01:53:36;98805.97;;;24.58;47.72
62164;BME280;48149;51.132;7.178;2023-02-19T01:56:03;98807.06;;;25.06;47.62
62164;BME280;48149;51.132;7.178;2023-02-19T01:58:30;98800.47;;;24.90;49.14
62164;BME280;48149;51.132;7.178;2023-02-19T02:00:57;98806.06;;;25.60;42.68
62164;BME280;48149;51.132;7.178;2023-02-19T02:03:23;98791.81;;;25.29;46.04
62164;BME280;48149;51.132;7.178;2023-02-19T02:06:23;98798.03;;;24.53;46.69
62164;BME280;48149;51.132;7.178;2023-02-19T02:08:40;98798.22;;;24.56;46.72
62164;BME280;48149;51.132;7.178;2023-02-19T02:11:24;98801.19;;;24.82;47.69
62164;BME280;48149;51.132;7.178;2023-02-19T02:13:49;98806.03;;;25.82;43.95
62164;BME280;48149;51.132;7.178;2023-02-19T02:16:27;98805.34;;;24.88;46.59
62164;BME280;48149;51.132;7.178;2023-02-19T02:24:10;98788.84;;;24.18;50.01
62164;BME280;48149;51.132;7.178;2023-02-19T02:29:20;98786.44;;;24.71;49.51
62164;BME280;48149;51.132;7.178;2023-02-19T02:31:57;98801.63;;;24.34;47.22
62164;BME280;48149;51.132;7.178;2023-02-19T02:34:24;98804.06;;;25.21;47.43
62164;BME280;48149;51.132;7.178;2023-02-19T02:36:52;98795.41;;;25.46;47.12
62164;BME280;48149;51.132;7.178;2023-02-19T02:39:18;98795.50;;;24.20;47.94
62164;BME280;48149;51.132;7.178;2023-02-19T02:41:48;98808.38;;;25.09;46.44
62164;BME280;48149;51.132;7.178;2023-02-19T02:44:35;98788.66;;;24.77;48.31
62164;BME280;48149;51.132;7.178;2023-02-19T02:47:00;98801.09;;;25.09;49.81
62164;BME280;48149;51.132;7.178;2023-02-19T02:49:27;98795.16;;;26.66;43.24
62164;BME280;48149;51.132;7.178;2023-02-19T02:51:53;98790.72;;;24.58;46.64
62164;BME280;48149;51.132;7.178;2023-02-19T02:54:23;98804.47;;;23.97;51.33
62164;BME280;48149;51.132;7.178;2023-02-19T02:57:09;98792.28;;;24.86;48.48
62164;BME280;48149;51.132;7.178;2023-02-19T02:59:39;98791.56;;;23.02;50.21
62164;BME280;48149;51.132;7.178;2023-02-19T03:02:10;98783.84;;;24.66;46.71
62164;BME280;48149;51.132;7.178;2023-02-19T03:07:27;98791.47;;;23.45;50.08
62164;BME280;48149;51.132;7.178;2023-02-19T03:09:55;98792.38;;;25.92;45.31
62164;BME280;48149;51.132;7.178;2023-02-19T03:12:22;98804.09;;;26.44;43.28
62164;BME280;48149;51.132;7.178;2023-02-19T03:15:08;98814.44;;;25.01;44.89
62164;BME280;48149;51.132;7.178;2023-02-19T03:17:56;98823.91;;;24.71;50.72
62164;BME280;48149;51.132;7.178;2023-02-19T03:20:43;98811.50;;;26.30;43.37
62164;BME280;48149;51.132;7.178;2023-02-19T03:23:10;98808.38;;;25.75;44.75
62164;BME280;48149;51.132;7.178;2023-02-19T03:25:36;98813.06;;;25.70;47.26
62164;BME280;48149;51.132;7.178;2023-02-19T03:28:23;98815.38;;;24.82;47.58
62164;BME280;48149;51.132;7.178;2023-02-19T03:31:10;98821.47;;;25.77;43.67
62164;BME280;48149;51.132;7.178;2023-02-19T03:33:36;98826.28;;;24.72;44.96
62164;BME280;48149;51.132;7.178;2023-02-19T03:36:05;98801.69;;;24.02;50.86
62164;BME280;48149;51.132;7.178;2023-02-19T03:41:05;98815.53;;;26.19;42.95
62164;BME280;48149;51.132;7.178;2023-02-19T03:43:39;98820.06;;;26.41;44.06
62164;BME280;48149;51.132;7.178;2023-02-19T03:46:13;98836.28;;;25.30;43.77
62164;BME280;48149;51.132;7.178;2023-02-19T03:48:44;98829.50;;;25.99;43.26
62164;BME280;48149;51.132;7.178;2023-02-19T03:51:26;98829.69;;;25.14;45.95
62164;BME280;48149;51.132;7.178;2023-02-19T03:56:57;98828.69;;;25.68;44.49
62164;BME280;48149;51.132;7.178;2023-02-19T03:59:32;98854.31;;;23.74;51.11
62164;BME280;48149;51.132;7.178;2023-02-19T04:02:12;98846.56;;;25.14;46.27
62164;BME280;48149;51.132;7.178;2023-02-19T04:04:39;98839.78;;;25.75;44.24
62164;BME280;48149;51.132;7.178;2023-02-19T04:07:07;98853.13;;;25.08;47.93
62164;BME280;48149;51.132;7.178;2023-02-19T04:09:36;98848.66;;;25.04;45.57
62164;BME280;48149;51.132;7.178;2023-02-19T04:12:04;98857.63;;;24.17;48.93
62164;BME280;48149;51.132;7.178;2023-02-19T04:14:52;98861.25;;;25.39;45.15
62164;BME280;48149;51.132;7.178;2023-02-19T04:17:17;98862.47;;;24.97;45.94
62164;BME280;48149;51.132;7.178;2023-02-19T04:19:43;98879.81;;;24.72;48.64
62164;BME280;48149;51.132;7.178;2023-02-19T04:22:11;98876.75;;;24.52;46.81
62164;BME280;48149;51.132;7.178;2023-02-19T04:24:41;98864.41;;;25.77;44.20
62164;BME280;48149;51.132;7.178;2023-02-19T04:27:09;98879.31;;;23.65;49.51
62164;BME280;48149;51.132;7.178;2023-02-19T04:29:35;98881.03;;;24.07;48.72
62164;BME280;48149;51.132;7.178;2023-02-19T04:32:00;98877.38;;;26.45;41.98
62164;BME280;48149;51.132;7.178;2023-02-19T04:34:25;98875.28;;;26.03;43.94
62164;BME280;48149;51.132;7.178;2023-02-19T04:36:51;98874.69;;;26.14;42.39
62164;BME280;48149;51.132;7.178;2023-02-19T04:39:16;98870.75;;;25.81;44.38
62164;BME280;48149;51.132;7.178;2023-02-19T04:41:41;98887.56;;;25.01;45.68
62164;BME280;48149;51.132;7.178;2023-02-19T04:44:06;98886.09;;;24.95;47.72
62164;BME280;48149;51.132;7.178;2023-02-19T04:46:32;98896.44;;;25.60;43.97
62164;BME280;48149;51.132;7.178;2023-02-19T04:48:57;98888.88;;;26.06;42.95
62164;BME280;48149;51.132;7.178;2023-02-19T04:51:22;98887.34;;;25.11;44.62
62164;BME280;48149;51.132;7.178;2023-02-19T04:53:47;98884.25;;;24.22;45.32
62164;BME280;48149;51.132;7.178;2023-02-19T04:56:13;98885.69;;;24.61;46.11
62164;BME280;48149;51.132;7.178;2023-02-19T04:58:39;98893.84;;;25.90;45.07
62164;BME280;48149;51.132;7.178;2023-02-19T05:01:04;98898.47;;;23.72;49.45
62164;BME280;48149;51.132;7.178;2023-02-19T05:03:30;98903.06;;;26.68;42.52
62164;BME280;48149;51.132;7.178;2023-02-19T05:05:55;98892.41;;;24.17;47.47
62164;BME280;48149;51.132;7.178;2023-02-19T05:08:20;98919.03;;;23.90;46.79
62164;BME280;48149;51.132;7.178;2023-02-19T05:10:46;98906.63;;;25.93;43.83
62164;BME280;48149;51.132;7.178;2023-02-19T05:13:11;98907.34;;;25.63;44.68
62164;BME280;48149;51.132;7.178;2023-02-19T05:15:36;98908.97;;;25.15;44.57
62164;BME280;48149;51.132;7.178;2023-02-19T05:18:01;98913.91;;;25.21;42.25
62164;BME280;48149;51.132;7.178;2023-02-19T05:20:27;98914.09;;;24.43;48.04
62164;BME280;48149;51.132;7.178;2023-02-19T05:22:52;98902.34;;;24.99;45.72
62164;BME280;48149;51.132;7.178;2023-02-19T05:25:17;98927.28;;;23.75;48.21
62164;BME280;48149;51.132;7.178;2023-02-19T05:27:42;98912.53;;;23.03;48.64
62164;BME280;48149;51.132;7.178;2023-02-19T05:30:08;98931.94;;;23.51;48.31
62164;BME280;48149;51.132;7.178;2023-02-19T05:32:34;98937.56;;;23.68;48.09
62164;BME280;48149;51.132;7.178;2023-02-19T05:34:59;98940.94;;;23.73;50.12
62164;BME280;48149;51.132;7.178;2023-02-19T05:37:24;98960.97;;;23.76;46.93
62164;BME280;48149;51.132;7.178;2023-02-19T05:39:50;98943.09;;;22.10;53.36
62164;BME280;48149;51.132;7.178;2023-02-19T05:42:15;98953.41;;;24.15;46.31
62164;BME280;48149;51.132;7.178;2023-02-19T05:44:40;98964.75;;;26.20;41.96
62164;BME280;48149;51.132;7.178;2023-02-19T05:47:06;98973.00;;;22.65;53.48
62164;BME280;48149;51.132;7.178;2023-02-19T05:49:31;98962.16;;;21.50;55.33
62164;BME280;48149;51.132;7.178;2023-02-19T05:51:56;98973.63;;;23.04;51.79
62164;BME280;48149;51.132;7.178;2023-02-19T05:54:21;98972.69;;;22.43;53.99
62164;BME280;48149;51.132;7.178;2023-02-19T05:56:46;98973.66;;;22.52;54.08
62164;BME280;48149;51.132;7.178;2023-02-19T06:01:40;98980.53;;;22.58;53.99
62164;BME280;48149;51.132;7.178;2023-02-19T06:04:05;98988.78;;;22.90;50.28
62164;BME280;48149;51.132;7.178;2023-02-19T06:06:30;98979.88;;;23.61;48.33
62164;BME280;48149;51.132;7.178;2023-02-19T06:08:56;98982.56;;;23.98;51.32
62164;BME280;48149;51.132;7.178;2023-02-19T06:11:21;98984.44;;;23.42;50.67
62164;BME280;48149;51.132;7.178;2023-02-19T06:13:46;98977.44;;;21.78;57.62
62164;BME280;48149;51.132;7.178;2023-02-19T06:16:14;98986.81;;;24.64;48.72
62164;BME280;48149;51.132;7.178;2023-02-19T06:18:41;98983.84;;;24.52;47.72
62164;BME280;48149;51.132;7.178;2023-02-19T06:21:07;98985.50;;;21.68;54.42
62164;BME280;48149;51.132;7.178;2023-02-19T06:23:33;98992.13;;;22.77;53.72
62164;BME280;48149;51.132;7.178;2023-02-19T06:26:08;99000.22;;;22.67;56.09
62164;BME280;48149;51.132;7.178;2023-02-19T06:28:34;98990.50;;;22.76;52.06
62164;BME280;48149;51.132;7.178;2023-02-19T06:30:59;98993.91;;;23.53;49.92
62164;BME280;48149;51.132;7.178;2023-02-19T06:33:25;99012.81;;;23.32;50.40
62164;BME280;48149;51.132;7.178;2023-02-19T06:35:50;99006.59;;;23.18;49.63
62164;BME280;48149;51.132;7.178;2023-02-19T06:38:15;98994.09;;;23.94;47.22
62164;BME280;48149;51.132;7.178;2023-02-19T06:40:40;99010.16;;;23.56;48.82
62164;BME280;48149;51.132;7.178;2023-02-19T06:43:06;99010.38;;;23.60;50.30
62164;BME280;48149;51.132;7.178;2023-02-19T06:45:31;99003.81;;;21.25;54.72
62164;BME280;48149;51.132;7.178;2023-02-19T06:47:56;99012.69;;;23.00;53.52
62164;BME280;48149;51.132;7.178;2023-02-19T06:50:21;99019.34;;;23.03;48.62
62164;BME280;48149;51.132;7.178;2023-02-19T06:52:46;99015.38;;;20.96;54.82
62164;BME280;48149;51.132;7.178;2023-02-19T06:55:12;99017.38;;;22.56;50.71
62164;BME280;48149;51.132;7.178;2023-02-19T06:57:37;99025.88;;;22.29;54.32
62164;BME280;48149;51.132;7.178;2023-02-19T07:00:02;99022.50;;;23.28;50.87
62164;BME280;48149;51.132;7.178;2023-02-19T07:02:28;99031.09;;;23.25;49.94
62164;BME280;48149;51.132;7.178;2023-02-19T07:04:53;99035.75;;;22.91;50.01
62164;BME280;48149;51.132;7.178;2023-02-19T07:07:19;99040.06;;;23.11;50.46
62164;BME280;48149;51.132;7.178;2023-02-19T07:09:44;99050.13;;;24.04;50.81
62164;BME280;48149;51.132;7.178;2023-02-19T07:12:09;99061.56;;;23.48;49.86
62164;BME280;48149;51.132;7.178;2023-02-19T07:14:34;99051.06;;;23.75;49.15
62164;BME280;48149;51.132;7.178;2023-02-19T07:16:59;99062.41;;;22.67;49.55
62164;BME280;48149;51.132;7.178;2023-02-19T07:19:25;99056.66;;;22.84;49.83
62164;BME280;48149;51.132;7.178;2023-02-19T07:21:50;99065.94;;;23.15;51.28
62164;BME280;48149;51.132;7.178;2023-02-19T07:24:15;99081.94;;;22.19;52.19
62164;BME280;48149;51.132;7.178;2023-02-19T07:26:40;99073.06;;;22.33;53.98
62164;BME280;48149;51.132;7.178;2023-02-19T07:29:06;99077.69;;;21.69;53.74
62164;BME280;48149;51.132;7.178;2023-02-19T07:31:31;99079.50;;;22.95;51.54
62164;BME280;48149;51.132;7.178;2023-02-19T07:33:56;99088.44;;;22.80;51.13
62164;BME280;48149;51.132;7.178;2023-02-19T07:36:22;99094.22;;;24.06;46.10
62164;BME280;48149;51.132;7.178;2023-02-19T07:38:54;99103.16;;;23.30;50.35
62164;BME280;48149;51.132;7.178;2023-02-19T07:41:20;99099.97;;;21.88;55.18
62164;BME280;48149;51.132;7.178;2023-02-19T07:43:45;99098.81;;;22.14;54.27
62164;BME280;48149;51.132;7.178;2023-02-19T07:46:11;99111.75;;;23.27;50.92
62164;BME280;48149;51.132;7.178;2023-02-19T07:48:37;99116.25;;;22.74;48.70
62164;BME280;48149;51.132;7.178;2023-02-19T07:51:04;99120.78;;;22.35;51.26
62164;BME280;48149;51.132;7.178;2023-02-19T07:53:29;99109.56;;;22.77;50.37
62164;BME280;48149;51.132;7.178;2023-02-19T07:55:58;99122.38;;;24.22;45.65
62164;BME280;48149;51.132;7.178;2023-02-19T07:58:24;99126.34;;;22.44;50.17
62164;BME280;48149;51.132;7.178;2023-02-19T08:00:49;99124.16;;;22.51;52.70
62164;BME280;48149;51.132;7.178;2023-02-19T08:03:15;99126.94;;;23.32;50.06
62164;BME280;48149;51.132;7.178;2023-02-19T08:05:40;99138.66;;;22.34;52.23
62164;BME280;48149;51.132;7.178;2023-02-19T08:08:07;99143.09;;;21.26;56.73
62164;BME280;48149;51.132;7.178;2023-02-19T08:10:32;99140.75;;;21.94;52.96
62164;BME280;48149;51.132;7.178;2023-02-19T08:13:17;99142.72;;;22.71;49.74
62164;BME280;48149;51.132;7.178;2023-02-19T08:18:14;99154.09;;;23.10;51.37
62164;BME280;48149;51.132;7.178;2023-02-19T08:20:43;99158.69;;;22.32;52.62
62164;BME280;48149;51.132;7.178;2023-02-19T08:23:09;99152.13;;;22.58;53.15
62164;BME280;48149;51.132;7.178;2023-02-19T08:25:35;99155.00;;;22.72;51.43
62164;BME280;48149;51.132;7.178;2023-02-19T08:28:00;99169.81;;;21.85;54.19
62164;BME280;48149;51.132;7.178;2023-02-19T08:30:26;99161.38;;;23.33;50.71
62164;BME280;48149;51.132;7.178;2023-02-19T08:32:51;99168.56;;;22.31;50.78
62164;BME280;48149;51.132;7.178;2023-02-19T08:35:16;99171.94;;;22.86;50.37
62164;BME280;48149;51.132;7.178;2023-02-19T08:37:41;99192.47;;;21.98;53.62
62164;BME280;48149;51.132;7.178;2023-02-19T08:40:07;99188.16;;;22.56;51.91
62164;BME280;48149;51.132;7.178;2023-02-19T08:42:32;99191.00;;;20.91;54.44
62164;BME280;48149;51.132;7.178;2023-02-19T08:44:57;99182.59;;;22.52;51.86
62164;BME280;48149;51.132;7.178;2023-02-19T08:47:23;99187.78;;;22.33;50.26
62164;BME280;48149;51.132;7.178;2023-02-19T08:49:48;99186.63;;;23.75;49.75
62164;BME280;48149;51.132;7.178;2023-02-19T08:52:13;99184.25;;;22.43;51.59
62164;BME280;48149;51.132;7.178;2023-02-19T08:54:38;99190.41;;;23.16;49.67
62164;BME280;48149;51.132;7.178;2023-02-19T08:57:04;99190.84;;;22.51;50.06
62164;BME280;48149;51.132;7.178;2023-02-19T08:59:29;99193.94;;;22.73;49.58
62164;BME280;48149;51.132;7.178;2023-02-19T09:01:54;99210.91;;;23.21;49.03
62164;BME280;48149;51.132;7.178;2023-02-19T09:04:20;99195.53;;;24.13;47.12
62164;BME280;48149;51.132;7.178;2023-02-19T09:06:45;99201.47;;;22.61;47.81
62164;BME280;48149;51.132;7.178;2023-02-19T09:09:10;99205.97;;;22.16;48.64
62164;BME280;48149;51.132;7.178;2023-02-19T09:11:37;99213.34;;;24.41;47.25
62164;BME280;48149;51.132;7.178;2023-02-19T09:14:02;99200.41;;;23.01;49.78
62164;BME280;48149;51.132;7.178;2023-02-19T09:16:31;99201.06;;;24.40;46.00
62164;BME280;48149;51.132;7.178;2023-02-19T09:18:56;99215.44;;;23.20;50.73
62164;BME280;48149;51.132;7.178;2023-02-19T09:21:21;99207.53;;;22.22;50.76
62164;BME280;48149;51.132;7.178;2023-02-19T09:23:47;99221.91;;;22.37;51.80
62164;BME280;48149;51.132;7.178;2023-02-19T09:26:12;99229.03;;;22.46;51.24
62164;BME280;48149;51.132;7.178;2023-02-19T09:28:38;99228.59;;;23.98;46.01
62164;BME280;48149;51.132;7.178;2023-02-19T09:31:06;99241.59;;;23.23;49.13
62164;BME280;48149;51.132;7.178;2023-02-19T09:33:31;99236.47;;;23.61;48.17
62164;BME280;48149;51.132;7.178;2023-02-19T09:36:00;99241.06;;;25.98;44.08
62164;BME280;48149;51.132;7.178;2023-02-19T09:38:25;99239.91;;;23.66;45.26
62164;BME280;48149;51.132;7.178;2023-02-19T09:40:51;99241.25;;;25.61;42.29
62164;BME280;48149;51.132;7.178;2023-02-19T09:43:17;99236.75;;;23.30;47.97
62164;BME280;48149;51.132;7.178;2023-02-19T09:45:44;99246.69;;;22.91;46.83
62164;BME280;48149;51.132;7.178;2023-02-19T09:48:10;99250.72;;;23.51;48.38
62164;BME280;48149;51.132;7.178;2023-02-19T09:50:37;99257.56;;;24.38;45.22
62164;BME280;48149;51.132;7.178;2023-02-19T09:53:11;99250.44;;;21.37;52.01
62164;BME280;48149;51.132;7.178;2023-02-19T09:55:40;99236.47;;;21.85;49.94
62164;BME280;48149;51.132;7.178;2023-02-19T10:00:44;99250.50;;;24.85;45.10
62164;BME280;48149;51.132;7.178;2023-02-19T10:03:13;99253.84;;;23.63;46.41
62164;BME280;48149;51.132;7.178;2023-02-19T10:05:44;99260.75;;;24.59;44.68
62164;BME280;48149;51.132;7.178;2023-02-19T10:08:11;99268.69;;;23.74;46.91
62164;BME280;48149;51.132;7.178;2023-02-19T10:10:38;99268.47;;;23.42;49.71
62164;BME280;48149;51.132;7.178;2023-02-19T10:13:27;99271.03;;;22.84;48.94
62164;BME280;48149;51.132;7.178;2023-02-19T10:15:55;99279.13;;;21.75;54.56
62164;BME280;48149;51.132;7.178;2023-02-19T10:18:21;99280.19;;;23.07;48.33
62164;BME280;48149;51.132;7.178;2023-02-19T10:20:48;99297.38;;;23.30;51.05
62164;BME280;48149;51.132;7.178;2023-02-19T10:23:14;99296.16;;;23.51;45.64
62164;BME280;48149;51.132;7.178;2023-02-19T10:25:42;99299.22;;;23.40;47.14
62164;BME280;48149;51.132;7.178;2023-02-19T10:28:09;99310.63;;;23.50;48.06
62164;BME280;48149;51.132;7.178;2023-02-19T10:30:38;99315.09;;;22.77;49.43
62164;BME280;48149;51.132;7.178;2023-02-19T10:33:11;99306.28;;;22.07;52.56
62164;BME280;48149;51.132;7.178;2023-02-19T10:35:38;99299.28;;;22.85;51.20
62164;BME280;48149;51.132;7.178;2023-02-19T10:38:15;99321.00;;;22.74;52.19
62164;BME280;48149;51.132;7.178;2023-02-19T10:40:42;99333.50;;;21.23;57.15
62164;BME280;48149;51.132;7.178;2023-02-19T10:43:08;99341.47;;;21.18;60.45
62164;BME280;48149;51.132;7.178;2023-02-19T10:45:45;99346.88;;;23.61;47.62
62164;BME280;48149;51.132;7.178;2023-02-19T10:48:34;99348.09;;;23.74;45.85
62164;BME280;48149;51.132;7.178;2023-02-19T10:51:01;99353.22;;;24.28;45.14
62164;BME280;48149;51.132;7.178;2023-02-19T10:53:45;99365.28;;;23.29;49.06
62164;BME280;48149;51.132;7.178;2023-02-19T10:56:24;99369.44;;;21.31;56.11
62164;BME280;48149;51.132;7.178;2023-02-19T10:58:50;99342.69;;;20.23;57.51
62164;BME280;48149;51.132;7.178;2023-02-19T11:01:16;99346.00;;;20.46;60.14
62164;BME280;48149;51.132;7.178;2023-02-19T11:03:43;99359.34;;;21.68;55.58
62164;BME280;48149;51.132;7.178;2023-02-19T11:06:09;99359.66;;;24.51;49.86
62164;BME280;48149;51.132;7.178;2023-02-19T11:11:13;99367.34;;;23.37;48.46
62164;BME280;48149;51.132;7.178;2023-02-19T11:13:45;99371.50;;;23.14;49.89
62164;BME280;48149;51.132;7.178;2023-02-19T11:16:11;99377.38;;;23.89;48.68
62164;BME280;48149;51.132;7.178;2023-02-19T11:18:36;99374.44;;;23.90;47.84
62164;BME280;48149;51.132;7.178;2023-02-19T11:21:03;99369.34;;;23.60;44.61
62164;BME280;48149;51.132;7.178;2023-02-19T11:26:01;99366.66;;;23.89;46.61
62164;BME280;48149;51.132;7.178;2023-02-19T11:28:34;99354.72;;;23.81;46.85
62164;BME280;48149;51.132;7.178;2023-02-19T11:31:14;99363.78;;;24.62;44.54
62164;BME280;48149;51.132;7.178;2023-02-19T11:33:43;99357.44;;;22.99;46.29
62164;BME280;48149;51.132;7.178;2023-02-19T11:38:41;99354.63;;;22.70;50.60
62164;BME280;48149;51.132;7.178;2023-02-19T11:41:13;99361.91;;;22.44;53.79
62164;BME280;48149;51.132;7.178;2023-02-19T11:46:27;99366.28;;;21.59;55.37
62164;BME280;48149;51.132;7.178;2023-02-19T11:49:00;99362.75;;;22.34;52.46
62164;BME280;48149;51.132;7.178;2023-02-19T11:57:00;99363.47;;;23.14;50.36
62164;BME280;48149;51.132;7.178;2023-02-19T12:17:55;99345.13;;;21.02;59.52
62164;BME280;48149;51.132;7.178;2023-02-19T12:23:07;99362.28;;;21.57;52.42
62164;BME280;48149;51.132;7.178;2023-02-19T12:33:29;99385.50;;;22.02;53.96
62164;BME280;48149;51.132;7.178;2023-02-19T12:43:23;99378.00;;;22.98;49.20
62164;BME280;48149;51.132;7.178;2023-02-19T12:45:51;99377.47;;;21.76;54.18
62164;BME280;48149;51.132;7.178;2023-02-19T12:50:45;99391.81;;;22.41;51.77
62164;BME280;48149;51.132;7.178;2023-02-19T12:55:42;99385.63;;;22.66;54.50
62164;BME280;48149;51.132;7.178;2023-02-19T12:58:27;99380.94;;;21.72;50.12
62164;BME280;48149;51.132;7.178;2023-02-19T13:00:54;99388.91;;;22.27;55.10
62164;BME280;48149;51.132;7.178;2023-02-19T13:03:31;99385.44;;;22.22;51.21
62164;BME280;48149;51.132;7.178;2023-02-19T13:11:16;99399.78;;;22.51;49.06
62164;BME280;48149;51.132;7.178;2023-02-19T13:13:46;99399.34;;;21.84;52.06
62164;BME280;48149;51.132;7.178;2023-02-19T13:16:14;99400.69;;;22.01;51.53
62164;BME280;48149;51.132;7.178;2023-02-19T13:18:45;99401.06;;;23.72;49.57
62164;BME280;48149;51.132;7.178;2023-02-19T13:21:11;99394.97;;;23.22;48.24
62164;BME280;48149;51.132;7.178;2023-02-19T13:23:57;99395.03;;;23.56;50.14
62164;BME280;48149;51.132;7.178;2023-02-19T13:34:34;99398.19;;;24.73;46.34
62164;BME280;48149;51.132;7.178;2023-02-19T13:37:04;99382.69;;;23.94;46.26
62164;BME280;48149;51.132;7.178;2023-02-19T13:39:30;99392.84;;;24.50;48.32
62164;BME280;48149;51.132;7.178;2023-02-19T13:41:55;99393.38;;;24.52;45.61
62164;BME280;48149;51.132;7.178;2023-02-19T13:44:29;99406.22;;;23.58;49.99
62164;BME280;48149;51.132;7.178;2023-02-19T13:46:55;99407.19;;;24.06;47.03
62164;BME280;48149;51.132;7.178;2023-02-19T13:51:53;99419.03;;;22.43;51.94
62164;BME280;48149;51.132;7.178;2023-02-19T13:54:22;99415.41;;;23.81;49.03
62164;BME280;48149;51.132;7.178;2023-02-19T13:56:49;99415.44;;;22.83;51.82
62164;BME280;48149;51.132;7.178;2023-02-19T14:24:54;99444.91;;;20.90;53.79
62164;BME280;48149;51.132;7.178;2023-02-19T14:27:20;99450.44;;;22.76;52.79
62164;BME280;48149;51.132;7.178;2023-02-19T14:29:46;99445.63;;;23.37;47.14
62164;BME280;48149;51.132;7.178;2023-02-19T14:32:15;99452.78;;;23.91;45.02
62164;BME280;48149;51.132;7.178;2023-02-19T14:34:46;99458.78;;;22.50;51.33
62164;BME280;48149;51.132;7.178;2023-02-19T14:37:18;99465.34;;;22.93;48.98
62164;BME280;48149;51.132;7.178;2023-02-19T14:39:45;99465.63;;;25.04;44.95
62164;BME280;48149;51.132;7.178;2023-02-19T14:42:21;99479.44;;;23.08;48.46
62164;BME280;48149;51.132;7.178;2023-02-19T14:44:49;99468.22;;;23.99;48.20
62164;BME280;48149;51.132;7.178;2023-02-19T14:47:16;99473.75;;;24.70;45.71
62164;BME280;48149;51.132;7.178;2023-02-19T14:49:46;99464.44;;;24.39;45.09
62164;BME280;48149;51.132;7.178;2023-02-19T14:54:41;99464.63;;;23.80;46.83
62164;BME280;48149;51.132;7.178;2023-02-19T14:57:31;99463.59;;;24.96;44.12
62164;BME280;48149;51.132;7.178;2023-02-19T14:59:55;99463.59;;;24.96;43.49
62164;BME280;48149;51.132;7.178;2023-02-19T15:02:22;99467.84;;;24.45;43.65
62164;BME280;48149;51.132;7.178;2023-02-19T15:04:53;99469.78;;;23.22;42.99
62164;BME280;48149;51.132;7.178;2023-02-19T15:07:27;99466.00;;;23.23;45.14
62164;BME280;48149;51.132;7.178;2023-02-19T15:09:55;99458.63;;;23.93;45.55